createdAt,value
2017-12-15T00:00:00.258Z,970.3
2017-12-15T00:01:00.914Z,970.3
2017-12-15T00:02:01.570Z,970.3
2017-12-15T00:03:02.226Z,970.3
2017-12-15T00:04:02.883Z,970.4
2017-12-15T00:05:03.539Z,970.4
2017-12-15T00:06:04.196Z,970.3
2017-12-15T00:07:04.855Z,970.4
2017-12-15T00:08:05.511Z,970.4
2017-12-15T00:09:06.169Z,970.4
2017-12-15T00:10:06.832Z,970.4
2017-12-15T00:11:07.484Z,970.4
2017-12-15T00:12:08.141Z,970.3
2017-12-15T00:13:08.796Z,970.4
2017-12-15T00:14:09.451Z,970.4
2017-12-15T00:15:10.106Z,970.4
2017-12-15T00:16:10.760Z,970.3
2017-12-15T00:17:11.416Z,970.3
2017-12-15T00:18:12.072Z,970.3
2017-12-15T00:19:12.730Z,970.3
2017-12-15T00:20:13.383Z,970.3
2017-12-15T00:21:14.071Z,970.3
2017-12-15T00:22:14.759Z,970.3
2017-12-15T00:23:15.413Z,970.3
2017-12-15T00:24:16.105Z,970.3
2017-12-15T00:25:16.758Z,970.3
2017-12-15T00:26:17.414Z,970.3
2017-12-15T00:27:18.069Z,970.3
2017-12-15T00:28:18.725Z,970.3
2017-12-15T00:29:19.381Z,970.3
2017-12-15T00:30:20.035Z,970.3
2017-12-15T00:31:20.726Z,970.3
2017-12-15T00:32:21.382Z,970.3
2017-12-15T00:33:22.040Z,970.3
2017-12-15T00:34:22.696Z,970.2
2017-12-15T00:35:23.352Z,970.2
2017-12-15T00:36:24.043Z,970.3
2017-12-15T00:37:24.697Z,970.3
2017-12-15T00:38:25.351Z,970.3
2017-12-15T00:39:26.007Z,970.3
2017-12-15T00:40:26.662Z,970.3
2017-12-15T00:41:27.318Z,970.3
2017-12-15T00:42:27.974Z,970.3
2017-12-15T00:43:28.629Z,970.2
2017-12-15T00:44:29.288Z,970.1
2017-12-15T00:45:29.941Z,970.1
2017-12-15T00:46:30.595Z,970.0
2017-12-15T00:47:31.249Z,970.0
2017-12-15T00:48:31.905Z,970.0
2017-12-15T00:49:32.561Z,970.0
2017-12-15T00:50:33.219Z,970.0
2017-12-15T00:51:33.876Z,970.1
2017-12-15T00:52:34.532Z,970.1
2017-12-15T00:53:35.192Z,970.1
2017-12-15T00:54:35.845Z,970.1
2017-12-15T00:55:36.501Z,970.1
2017-12-15T00:56:37.158Z,970.1
2017-12-15T00:57:37.815Z,970.1
2017-12-15T00:58:38.470Z,970.0
2017-12-15T00:59:39.124Z,970.0
2017-12-15T01:00:39.779Z,970.0
2017-12-15T01:01:40.435Z,970.0
2017-12-15T01:02:41.088Z,970.0
2017-12-15T01:03:41.743Z,970.0
2017-12-15T01:04:42.398Z,970.0
2017-12-15T01:05:43.054Z,970.1
2017-12-15T01:06:43.707Z,970.0
2017-12-15T01:07:44.363Z,970.0
2017-12-15T01:08:45.017Z,970.1
2017-12-15T01:09:45.672Z,970.1
2017-12-15T01:10:46.327Z,970.1
2017-12-15T01:11:46.984Z,970.1
2017-12-15T01:12:47.641Z,970.2
2017-12-15T01:13:48.299Z,970.2
2017-12-15T01:14:48.956Z,970.1
2017-12-15T01:15:49.617Z,970.2
2017-12-15T01:16:50.269Z,970.2
2017-12-15T01:17:50.925Z,970.2
2017-12-15T01:18:51.581Z,970.2
2017-12-15T01:19:52.237Z,970.2
2017-12-15T01:20:52.894Z,970.2
2017-12-15T01:21:53.547Z,970.2
2017-12-15T01:22:54.202Z,970.1
2017-12-15T01:23:54.856Z,970.1
2017-12-15T01:24:55.510Z,970.1
2017-12-15T01:25:56.167Z,970.2
2017-12-15T01:26:56.856Z,970.1
2017-12-15T01:27:57.510Z,970.2
2017-12-15T01:28:58.165Z,970.2
2017-12-15T01:29:58.822Z,970.1
2017-12-15T01:30:59.510Z,970.1
2017-12-15T01:32:00.165Z,970.1
2017-12-15T01:33:00.820Z,970.0
2017-12-15T01:34:01.481Z,970.1
2017-12-15T01:35:02.128Z,970.0
2017-12-15T01:36:02.784Z,970.0
2017-12-15T01:37:03.441Z,969.9
2017-12-15T01:38:04.095Z,969.9
2017-12-15T01:39:04.750Z,969.9
2017-12-15T01:40:05.407Z,969.8
2017-12-15T01:41:06.096Z,969.8
2017-12-15T01:42:06.752Z,969.9
2017-12-15T01:43:07.408Z,969.8
2017-12-15T01:44:08.065Z,969.9
2017-12-15T01:45:08.721Z,969.8
2017-12-15T01:46:09.376Z,969.8
2017-12-15T01:47:10.032Z,969.9
2017-12-15T01:48:10.685Z,969.9
2017-12-15T01:49:11.339Z,970.0
2017-12-15T01:50:11.994Z,969.9
2017-12-15T01:51:12.649Z,969.9
2017-12-15T01:52:13.306Z,969.9
2017-12-15T01:53:13.995Z,970.0
2017-12-15T01:54:14.650Z,970.0
2017-12-15T01:55:15.305Z,970.0
2017-12-15T01:56:15.962Z,970.0
2017-12-15T01:57:16.618Z,970.0
2017-12-15T01:58:17.280Z,970.0
2017-12-15T01:59:17.933Z,970.0
2017-12-15T02:00:18.591Z,970.0
2017-12-15T02:01:19.248Z,970.1
2017-12-15T02:02:19.904Z,970.1
2017-12-15T02:03:20.562Z,970.1
2017-12-15T02:04:21.215Z,970.1
2017-12-15T02:05:21.870Z,970.1
2017-12-15T02:06:22.523Z,970.1
2017-12-15T02:07:23.177Z,970.1
2017-12-15T02:08:23.836Z,970.1
2017-12-15T02:09:24.490Z,970.1
2017-12-15T02:10:25.145Z,970.1
2017-12-15T02:11:25.800Z,970.2
2017-12-15T02:12:26.457Z,970.1
2017-12-15T02:13:27.146Z,970.1
2017-12-15T02:14:27.802Z,970.0
2017-12-15T02:15:28.459Z,970.1
2017-12-15T02:16:29.116Z,970.0
2017-12-15T02:17:29.774Z,970.0
2017-12-15T02:18:30.429Z,970.0
2017-12-15T02:19:31.084Z,970.0
2017-12-15T02:20:31.739Z,970.0
2017-12-15T02:21:32.397Z,970.0
2017-12-15T02:22:33.084Z,970.0
2017-12-15T02:23:33.740Z,970.0
2017-12-15T02:24:34.396Z,970.0
2017-12-15T02:25:35.051Z,969.9
2017-12-15T02:26:35.707Z,969.9
2017-12-15T02:27:36.395Z,969.9
2017-12-15T02:28:37.019Z,969.9
2017-12-15T02:29:37.708Z,969.9
2017-12-15T02:30:38.363Z,969.8
2017-12-15T02:31:39.017Z,969.9
2017-12-15T02:32:39.672Z,969.9
2017-12-15T02:33:40.327Z,969.8
2017-12-15T02:34:40.988Z,969.8
2017-12-15T02:35:41.641Z,969.8
2017-12-15T02:36:42.303Z,969.8
2017-12-15T02:37:42.953Z,969.8
2017-12-15T02:38:43.608Z,969.8
2017-12-15T02:39:44.264Z,969.8
2017-12-15T02:40:44.919Z,969.8
2017-12-15T02:41:45.626Z,969.8
2017-12-15T02:42:46.283Z,969.8
2017-12-15T02:43:46.937Z,969.8
2017-12-15T02:44:47.593Z,969.8
2017-12-15T02:45:48.252Z,969.8
2017-12-15T02:46:48.909Z,969.7
2017-12-15T02:47:49.566Z,969.8
2017-12-15T02:48:50.223Z,969.8
2017-12-15T02:49:50.880Z,969.7
2017-12-15T02:50:51.539Z,969.8
2017-12-15T02:51:52.195Z,969.7
2017-12-15T02:52:52.851Z,969.7
2017-12-15T02:53:53.511Z,969.7
2017-12-15T02:54:54.161Z,969.7
2017-12-15T02:55:54.816Z,969.7
2017-12-15T02:56:55.471Z,969.7
2017-12-15T02:57:56.127Z,969.7
2017-12-15T02:58:56.782Z,969.7
2017-12-15T02:59:57.438Z,969.7
2017-12-15T03:00:58.094Z,969.7
2017-12-15T03:01:58.749Z,969.8
2017-12-15T03:02:59.404Z,969.7
2017-12-15T03:04:00.060Z,969.8
2017-12-15T03:05:00.718Z,969.8
2017-12-15T03:06:01.411Z,969.7
2017-12-15T03:07:02.067Z,969.8
2017-12-15T03:08:02.723Z,969.8
2017-12-15T03:09:03.377Z,969.8
2017-12-15T03:10:04.033Z,969.8
2017-12-15T03:11:04.692Z,969.8
2017-12-15T03:12:05.379Z,969.8
2017-12-15T03:13:06.034Z,969.8
2017-12-15T03:14:06.692Z,969.8
2017-12-15T03:15:07.350Z,969.8
2017-12-15T03:16:08.007Z,969.8
2017-12-15T03:17:08.669Z,969.8
2017-12-15T03:18:09.322Z,969.8
2017-12-15T03:19:09.986Z,969.8
2017-12-15T03:20:10.637Z,969.8
2017-12-15T03:21:11.294Z,969.8
2017-12-15T03:22:11.950Z,969.8
2017-12-15T03:23:12.605Z,969.8
2017-12-15T03:24:13.260Z,969.9
2017-12-15T03:25:13.916Z,969.8
2017-12-15T03:26:14.573Z,969.8
2017-12-15T03:27:15.228Z,969.8
2017-12-15T03:28:15.884Z,969.8
2017-12-15T03:29:16.540Z,969.8
2017-12-15T03:30:17.198Z,969.8
2017-12-15T03:31:17.852Z,969.8
2017-12-15T03:32:18.508Z,969.8
2017-12-15T03:33:19.201Z,969.8
2017-12-15T03:34:19.858Z,969.8
2017-12-15T03:35:20.514Z,969.8
2017-12-15T03:36:21.169Z,969.8
2017-12-15T03:37:21.825Z,969.8
2017-12-15T03:38:22.481Z,969.9
2017-12-15T03:39:23.136Z,969.8
2017-12-15T03:40:23.794Z,969.8
2017-12-15T03:41:24.449Z,969.8
2017-12-15T03:42:25.106Z,969.8
2017-12-15T03:43:25.763Z,969.8
2017-12-15T03:44:26.418Z,969.8
2017-12-15T03:45:27.074Z,969.8
2017-12-15T03:46:27.731Z,969.8
2017-12-15T03:47:28.389Z,969.8
2017-12-15T03:48:29.045Z,969.8
2017-12-15T03:49:29.701Z,969.8
2017-12-15T03:50:30.359Z,969.8
2017-12-15T03:51:31.017Z,969.8
2017-12-15T03:52:31.675Z,969.8
2017-12-15T03:53:32.330Z,969.8
2017-12-15T03:54:32.987Z,969.8
2017-12-15T03:55:33.642Z,969.8
2017-12-15T03:56:34.297Z,969.9
2017-12-15T03:57:34.952Z,969.9
2017-12-15T03:58:35.608Z,969.9
2017-12-15T03:59:36.265Z,969.9
2017-12-15T04:00:36.921Z,969.9
2017-12-15T04:01:37.577Z,969.9
2017-12-15T04:02:38.236Z,969.9
2017-12-15T04:03:38.890Z,970.0
2017-12-15T04:04:39.547Z,970.0
2017-12-15T04:05:40.204Z,970.0
2017-12-15T04:06:40.864Z,970.0
2017-12-15T04:07:41.520Z,970.1
2017-12-15T04:08:42.178Z,970.1
2017-12-15T04:09:42.836Z,970.1
2017-12-15T04:10:43.493Z,970.1
2017-12-15T04:11:44.187Z,970.2
2017-12-15T04:12:44.843Z,970.2
2017-12-15T04:13:45.498Z,970.2
2017-12-15T04:14:46.155Z,970.2
2017-12-15T04:15:46.812Z,970.2
2017-12-15T04:16:47.470Z,970.2
2017-12-15T04:17:48.128Z,970.3
2017-12-15T04:18:48.784Z,970.3
2017-12-15T04:19:49.441Z,970.3
2017-12-15T04:20:50.096Z,970.3
2017-12-15T04:21:50.750Z,970.4
2017-12-15T04:22:51.408Z,970.4
2017-12-15T04:23:52.064Z,970.4
2017-12-15T04:24:52.721Z,970.4
2017-12-15T04:25:53.387Z,970.4
2017-12-15T04:26:54.038Z,970.4
2017-12-15T04:27:54.695Z,970.5
2017-12-15T04:28:55.352Z,970.5
2017-12-15T04:29:56.008Z,970.6
2017-12-15T04:30:56.665Z,970.6
2017-12-15T04:31:57.320Z,970.6
2017-12-15T04:32:57.976Z,970.6
2017-12-15T04:33:58.634Z,970.6
2017-12-15T04:34:59.290Z,970.6
2017-12-15T04:35:59.948Z,970.6
2017-12-15T04:37:00.608Z,970.6
2017-12-15T04:38:01.260Z,970.6
2017-12-15T04:39:01.916Z,970.6
2017-12-15T04:40:02.573Z,970.6
2017-12-15T04:41:03.230Z,970.6
2017-12-15T04:42:03.887Z,970.7
2017-12-15T04:43:04.546Z,970.7
2017-12-15T04:44:05.205Z,970.7
2017-12-15T04:45:05.894Z,970.7
2017-12-15T04:46:06.587Z,970.7
2017-12-15T04:47:07.244Z,970.7
2017-12-15T04:48:07.906Z,970.7
2017-12-15T04:49:08.595Z,970.7
2017-12-15T04:50:09.249Z,970.7
2017-12-15T04:51:09.904Z,970.7
2017-12-15T04:52:10.561Z,970.8
2017-12-15T04:53:11.217Z,970.8
2017-12-15T04:54:11.874Z,970.8
2017-12-15T04:55:12.532Z,970.8
2017-12-15T04:56:13.189Z,970.9
2017-12-15T04:57:13.846Z,970.9
2017-12-15T04:58:14.502Z,970.9
2017-12-15T04:59:15.159Z,970.9
2017-12-15T05:00:15.818Z,970.9
2017-12-15T05:01:16.474Z,971.0
2017-12-15T05:02:17.132Z,970.9
2017-12-15T05:03:17.789Z,970.9
2017-12-15T05:04:18.446Z,970.9
2017-12-15T05:05:19.100Z,970.9
2017-12-15T05:06:19.757Z,970.9
2017-12-15T05:07:20.412Z,971.0
2017-12-15T05:08:21.068Z,970.9
2017-12-15T05:09:21.725Z,971.0
2017-12-15T05:10:22.382Z,971.0
2017-12-15T05:11:23.039Z,971.0
2017-12-15T05:12:23.699Z,971.0
2017-12-15T05:13:24.356Z,971.1
2017-12-15T05:14:25.013Z,971.1
2017-12-15T05:15:25.671Z,971.1
2017-12-15T05:16:26.329Z,971.1
2017-12-15T05:17:26.989Z,971.1
2017-12-15T05:18:27.677Z,971.1
2017-12-15T05:19:28.331Z,971.1
2017-12-15T05:20:28.988Z,971.2
2017-12-15T05:21:29.644Z,971.1
2017-12-15T05:22:30.302Z,971.1
2017-12-15T05:23:30.956Z,971.2
2017-12-15T05:24:31.611Z,971.2
2017-12-15T05:25:32.268Z,971.2
2017-12-15T05:26:32.926Z,971.2
2017-12-15T05:27:33.582Z,971.2
2017-12-15T05:28:34.239Z,971.3
2017-12-15T05:29:34.896Z,971.2
2017-12-15T05:30:35.555Z,971.2
2017-12-15T05:31:36.212Z,971.3
2017-12-15T05:32:36.870Z,971.3
2017-12-15T05:33:37.525Z,971.3
2017-12-15T05:34:38.183Z,971.3
2017-12-15T05:35:38.840Z,971.3
2017-12-15T05:36:39.499Z,971.3
2017-12-15T05:37:40.164Z,971.4
2017-12-15T05:38:40.810Z,971.4
2017-12-15T05:39:41.465Z,971.4
2017-12-15T05:40:42.123Z,971.4
2017-12-15T05:41:42.779Z,971.4
2017-12-15T05:42:43.436Z,971.4
2017-12-15T05:43:44.094Z,971.4
2017-12-15T05:44:44.751Z,971.4
2017-12-15T05:45:45.409Z,971.4
2017-12-15T05:46:46.066Z,971.4
2017-12-15T05:47:46.724Z,971.4
2017-12-15T05:48:47.382Z,971.5
2017-12-15T05:49:48.040Z,971.4
2017-12-15T05:50:48.698Z,971.4
2017-12-15T05:51:49.359Z,971.4
2017-12-15T05:52:50.016Z,971.5
2017-12-15T05:53:50.673Z,971.5
2017-12-15T05:54:51.330Z,971.5
2017-12-15T05:55:51.990Z,971.6
2017-12-15T05:56:52.645Z,971.6
2017-12-15T05:57:53.302Z,971.6
2017-12-15T05:58:53.959Z,971.6
2017-12-15T05:59:54.616Z,971.6
2017-12-15T06:00:55.273Z,971.7
2017-12-15T06:01:55.931Z,971.6
2017-12-15T06:02:56.591Z,971.7
2017-12-15T06:03:57.249Z,971.7
2017-12-15T06:04:57.907Z,971.7
2017-12-15T06:05:58.564Z,971.7
2017-12-15T06:06:59.222Z,971.7
2017-12-15T06:07:59.880Z,971.8
2017-12-15T06:09:00.537Z,971.8
2017-12-15T06:10:01.195Z,971.8
2017-12-15T06:11:01.856Z,971.8
2017-12-15T06:12:02.545Z,971.9
2017-12-15T06:13:03.199Z,971.9
2017-12-15T06:14:03.855Z,971.9
2017-12-15T06:15:04.511Z,971.9
2017-12-15T06:16:05.233Z,971.9
2017-12-15T06:17:05.825Z,971.9
2017-12-15T06:18:06.482Z,971.9
2017-12-15T06:19:07.139Z,972.0
2017-12-15T06:20:07.796Z,971.9
2017-12-15T06:21:08.453Z,972.0
2017-12-15T06:22:09.110Z,971.9
2017-12-15T06:23:09.766Z,972.0
2017-12-15T06:24:10.424Z,972.0
2017-12-15T06:25:11.081Z,972.0
2017-12-15T06:26:11.735Z,972.1
2017-12-15T06:27:12.391Z,972.1
2017-12-15T06:28:13.047Z,972.1
2017-12-15T06:29:13.704Z,972.1
2017-12-15T06:30:14.360Z,972.2
2017-12-15T06:31:15.017Z,972.2
2017-12-15T06:32:15.677Z,972.2
2017-12-15T06:33:16.334Z,972.3
2017-12-15T06:34:16.992Z,972.3
2017-12-15T06:35:17.649Z,972.4
2017-12-15T06:36:18.306Z,972.3
2017-12-15T06:37:18.968Z,972.3
2017-12-15T06:38:19.659Z,972.4
2017-12-15T06:39:20.315Z,972.4
2017-12-15T06:40:20.972Z,972.4
2017-12-15T06:41:21.628Z,972.5
2017-12-15T06:42:22.284Z,972.4
2017-12-15T06:43:22.940Z,972.5
2017-12-15T06:44:23.645Z,972.5
2017-12-15T06:45:24.301Z,972.5
2017-12-15T06:46:24.958Z,972.5
2017-12-15T06:47:25.616Z,972.5
2017-12-15T06:48:26.269Z,972.5
2017-12-15T06:49:26.926Z,972.6
2017-12-15T06:50:27.583Z,972.5
2017-12-15T06:51:28.239Z,972.6
2017-12-15T06:52:28.899Z,972.6
2017-12-15T06:53:29.558Z,972.6
2017-12-15T06:54:30.215Z,972.6
2017-12-15T06:55:30.877Z,972.6
2017-12-15T06:56:31.533Z,972.6
2017-12-15T06:57:32.191Z,972.6
2017-12-15T06:58:32.847Z,972.7
2017-12-15T06:59:33.506Z,972.7
2017-12-15T07:00:34.164Z,972.7
2017-12-15T07:01:34.822Z,972.7
2017-12-15T07:02:35.482Z,972.7
2017-12-15T07:03:36.140Z,972.8
2017-12-15T07:04:36.798Z,972.8
2017-12-15T07:05:37.454Z,972.8
2017-12-15T07:06:38.112Z,972.8
2017-12-15T07:07:38.772Z,972.9
2017-12-15T07:08:39.463Z,973.0
2017-12-15T07:09:40.121Z,973.0
2017-12-15T07:10:40.779Z,973.0
2017-12-15T07:11:41.438Z,973.0
2017-12-15T07:12:42.105Z,973.0
2017-12-15T07:13:42.790Z,973.0
2017-12-15T07:14:43.448Z,973.1
2017-12-15T07:15:44.106Z,973.1
2017-12-15T07:16:44.764Z,973.1
2017-12-15T07:17:45.421Z,973.1
2017-12-15T07:18:46.080Z,973.1
2017-12-15T07:19:46.738Z,973.1
2017-12-15T07:20:47.396Z,973.2
2017-12-15T07:21:48.054Z,973.2
2017-12-15T07:22:48.710Z,973.2
2017-12-15T07:23:49.368Z,973.2
2017-12-15T07:24:50.026Z,973.2
2017-12-15T07:25:50.684Z,973.2
2017-12-15T07:26:51.343Z,973.3
2017-12-15T07:27:52.001Z,973.2
2017-12-15T07:28:52.658Z,973.2
2017-12-15T07:29:53.315Z,973.3
2017-12-15T07:30:53.973Z,973.3
2017-12-15T07:31:54.631Z,973.3
2017-12-15T07:32:55.292Z,973.3
2017-12-15T07:33:55.952Z,973.3
2017-12-15T07:34:56.611Z,973.3
2017-12-15T07:35:57.269Z,973.3
2017-12-15T07:36:57.930Z,973.3
2017-12-15T07:37:58.587Z,973.3
2017-12-15T07:38:59.246Z,973.3
2017-12-15T07:39:59.906Z,973.4
2017-12-15T07:41:00.600Z,973.4
2017-12-15T07:42:01.259Z,973.4
2017-12-15T07:43:01.918Z,973.4
2017-12-15T07:44:02.578Z,973.4
2017-12-15T07:45:03.238Z,973.4
2017-12-15T07:46:03.898Z,973.5
2017-12-15T07:47:04.558Z,973.5
2017-12-15T07:48:05.217Z,973.6
2017-12-15T07:49:05.882Z,973.6
2017-12-15T07:50:06.538Z,973.6
2017-12-15T07:51:07.197Z,973.6
2017-12-15T07:52:07.855Z,973.7
2017-12-15T07:53:08.513Z,973.6
2017-12-15T07:54:09.173Z,973.6
2017-12-15T07:55:09.831Z,973.7
2017-12-15T07:56:10.489Z,973.7
2017-12-15T07:57:11.150Z,973.7
2017-12-15T07:58:11.810Z,973.7
2017-12-15T07:59:12.470Z,973.7
2017-12-15T08:00:13.132Z,973.7
2017-12-15T08:01:13.827Z,973.8
2017-12-15T08:02:14.488Z,973.8
2017-12-15T08:03:15.150Z,973.8
2017-12-15T08:04:15.809Z,973.8
2017-12-15T08:05:16.468Z,973.9
2017-12-15T08:06:17.127Z,973.8
2017-12-15T08:07:17.791Z,973.8
2017-12-15T08:08:18.444Z,973.8
2017-12-15T08:09:19.103Z,973.8
2017-12-15T08:10:19.762Z,973.8
2017-12-15T08:11:20.422Z,973.8
2017-12-15T08:12:21.081Z,973.8
2017-12-15T08:13:21.742Z,973.8
2017-12-15T08:14:22.403Z,973.8
2017-12-15T08:15:23.062Z,973.9
2017-12-15T08:16:23.722Z,973.9
2017-12-15T08:17:24.386Z,973.9
2017-12-15T08:18:25.040Z,973.9
2017-12-15T08:19:25.700Z,973.9
2017-12-15T08:20:26.357Z,974.0
2017-12-15T08:21:27.017Z,974.0
2017-12-15T08:22:27.677Z,974.0
2017-12-15T08:23:28.374Z,974.0
2017-12-15T08:24:29.030Z,974.0
2017-12-15T08:25:29.689Z,974.0
2017-12-15T08:26:30.349Z,974.1
2017-12-15T08:27:31.040Z,974.1
2017-12-15T08:28:31.699Z,974.1
2017-12-15T08:29:32.359Z,974.2
2017-12-15T08:30:33.017Z,974.2
2017-12-15T08:31:33.677Z,974.2
2017-12-15T08:32:34.336Z,974.2
2017-12-15T08:33:35.002Z,974.2
2017-12-15T08:34:35.654Z,974.3
2017-12-15T08:35:36.316Z,974.3
2017-12-15T08:36:36.978Z,974.3
2017-12-15T08:37:37.638Z,974.4
2017-12-15T08:38:38.298Z,974.4
2017-12-15T08:39:38.955Z,974.4
2017-12-15T08:40:39.615Z,974.4
2017-12-15T08:41:40.273Z,974.5
2017-12-15T08:42:40.932Z,974.5
2017-12-15T08:43:41.592Z,974.5
2017-12-15T08:44:42.249Z,974.5
2017-12-15T08:45:42.909Z,974.6
2017-12-15T08:46:43.569Z,974.5
2017-12-15T08:47:44.230Z,974.6
2017-12-15T08:48:44.890Z,974.6
2017-12-15T08:49:45.549Z,974.7
2017-12-15T08:50:46.210Z,974.7
2017-12-15T08:51:46.869Z,974.7
2017-12-15T08:52:47.528Z,974.7
2017-12-15T08:53:48.187Z,974.7
2017-12-15T08:54:48.847Z,974.8
2017-12-15T08:55:49.506Z,974.9
2017-12-15T08:56:50.164Z,974.9
2017-12-15T08:57:50.823Z,974.9
2017-12-15T08:58:51.483Z,974.9
2017-12-15T08:59:52.144Z,975.0
2017-12-15T09:00:52.804Z,975.0
2017-12-15T09:01:53.464Z,975.0
2017-12-15T09:02:54.127Z,975.1
2017-12-15T09:03:54.787Z,975.1
2017-12-15T09:04:55.449Z,975.1
2017-12-15T09:05:56.108Z,975.1
2017-12-15T09:06:56.768Z,975.1
2017-12-15T09:07:57.427Z,975.1
2017-12-15T09:08:58.089Z,975.2
2017-12-15T09:09:58.750Z,975.2
2017-12-15T09:10:59.411Z,975.3
2017-12-15T09:12:00.071Z,975.3
2017-12-15T09:13:00.731Z,975.3
2017-12-15T09:14:01.392Z,975.4
2017-12-15T09:15:02.052Z,975.4
2017-12-15T09:16:02.710Z,975.4
2017-12-15T09:17:03.371Z,975.4
2017-12-15T09:18:04.032Z,975.5
2017-12-15T09:19:04.691Z,975.4
2017-12-15T09:20:05.352Z,975.4
2017-12-15T09:21:06.012Z,975.5
2017-12-15T09:22:06.672Z,975.5
2017-12-15T09:23:07.342Z,975.4
2017-12-15T09:24:08.000Z,975.5
2017-12-15T09:25:08.660Z,975.5
2017-12-15T09:26:09.323Z,975.5
2017-12-15T09:27:09.983Z,975.5
2017-12-15T09:28:10.642Z,975.5
2017-12-15T09:29:11.303Z,975.5
2017-12-15T09:30:11.962Z,975.5
2017-12-15T09:31:12.624Z,975.5
2017-12-15T09:32:13.286Z,975.5
2017-12-15T09:33:13.948Z,975.5
2017-12-15T09:34:14.610Z,975.5
2017-12-15T09:35:15.269Z,975.5
2017-12-15T09:36:15.930Z,975.5
2017-12-15T09:37:16.591Z,975.5
2017-12-15T09:38:17.252Z,975.5
2017-12-15T09:39:17.912Z,975.5
2017-12-15T09:40:18.572Z,975.5
2017-12-15T09:41:19.232Z,975.6
2017-12-15T09:42:19.894Z,975.6
2017-12-15T09:43:20.555Z,975.5
2017-12-15T09:44:21.216Z,975.5
2017-12-15T09:45:21.879Z,975.5
2017-12-15T09:46:22.542Z,975.5
2017-12-15T09:47:23.203Z,975.6
2017-12-15T09:48:23.864Z,975.6
2017-12-15T09:49:24.524Z,975.6
2017-12-15T09:50:25.186Z,975.6
2017-12-15T09:51:25.847Z,975.6
2017-12-15T09:52:26.508Z,975.7
2017-12-15T09:53:27.169Z,975.7
2017-12-15T09:54:27.831Z,975.7
2017-12-15T09:55:28.492Z,975.7
2017-12-15T09:56:29.153Z,975.7
2017-12-15T09:57:29.815Z,975.7
2017-12-15T09:58:30.530Z,975.7
2017-12-15T09:59:31.137Z,975.7
2017-12-15T10:00:31.797Z,975.7
2017-12-15T10:01:32.458Z,975.7
2017-12-15T10:02:33.120Z,975.8
2017-12-15T10:03:33.786Z,975.7
2017-12-15T10:04:34.441Z,975.7
2017-12-15T10:05:35.101Z,975.8
2017-12-15T10:06:35.761Z,975.7
2017-12-15T10:07:36.423Z,975.7
2017-12-15T10:08:37.083Z,975.6
2017-12-15T10:09:37.747Z,975.6
2017-12-15T10:10:38.409Z,975.7
2017-12-15T10:11:39.072Z,975.7
2017-12-15T10:12:39.734Z,975.7
2017-12-15T10:13:40.417Z,975.6
2017-12-15T10:14:41.057Z,975.7
2017-12-15T10:15:41.719Z,975.7
2017-12-15T10:16:42.382Z,975.7
2017-12-15T10:17:43.046Z,975.7
2017-12-15T10:18:43.707Z,975.6
2017-12-15T10:19:44.368Z,975.6
2017-12-15T10:20:45.068Z,975.6
2017-12-15T10:21:45.728Z,975.6
2017-12-15T10:22:46.391Z,975.6
2017-12-15T10:23:47.053Z,975.6
2017-12-15T10:24:47.717Z,975.6
2017-12-15T10:25:48.377Z,975.6
2017-12-15T10:26:49.088Z,975.6
2017-12-15T10:27:49.752Z,975.6
2017-12-15T10:28:50.416Z,975.6
2017-12-15T10:29:51.078Z,975.6
2017-12-15T10:30:51.741Z,975.6
2017-12-15T10:31:52.437Z,975.6
2017-12-15T10:32:53.069Z,975.6
2017-12-15T10:33:53.732Z,975.6
2017-12-15T10:34:54.395Z,975.6
2017-12-15T10:35:55.057Z,975.5
2017-12-15T10:36:55.752Z,975.5
2017-12-15T10:37:56.414Z,975.5
2017-12-15T10:38:57.077Z,975.5
2017-12-15T10:39:57.737Z,975.4
2017-12-15T10:40:58.431Z,975.4
2017-12-15T10:41:59.093Z,975.4
2017-12-15T10:42:59.756Z,975.4
2017-12-15T10:44:00.422Z,975.4
2017-12-15T10:45:01.123Z,975.4
2017-12-15T10:46:01.778Z,975.5
2017-12-15T10:47:02.440Z,975.4
2017-12-15T10:48:03.103Z,975.4
2017-12-15T10:49:03.763Z,975.5
2017-12-15T10:50:04.426Z,975.4
2017-12-15T10:51:05.086Z,975.5
2017-12-15T10:52:05.749Z,975.5
2017-12-15T10:53:06.412Z,975.5
2017-12-15T10:54:07.070Z,975.6
2017-12-15T10:55:07.732Z,975.6
2017-12-15T10:56:08.394Z,975.6
2017-12-15T10:57:09.058Z,975.5
2017-12-15T10:58:09.724Z,975.5
2017-12-15T10:59:10.383Z,975.6
2017-12-15T11:00:11.082Z,975.6
2017-12-15T11:01:11.745Z,975.6
2017-12-15T11:02:12.406Z,975.6
2017-12-15T11:03:13.103Z,975.5
2017-12-15T11:04:13.765Z,975.5
2017-12-15T11:05:14.428Z,975.5
2017-12-15T11:06:15.088Z,975.5
2017-12-15T11:07:15.748Z,975.5
2017-12-15T11:08:16.413Z,975.6
2017-12-15T11:09:17.072Z,975.6
2017-12-15T11:10:17.734Z,975.5
2017-12-15T11:11:18.395Z,975.5
2017-12-15T11:12:19.058Z,975.5
2017-12-15T11:13:19.753Z,975.6
2017-12-15T11:14:20.446Z,975.6
2017-12-15T11:15:21.107Z,975.6
2017-12-15T11:16:21.805Z,975.6
2017-12-15T11:17:22.520Z,975.6
2017-12-15T11:18:23.178Z,975.6
2017-12-15T11:19:23.840Z,975.7
2017-12-15T11:20:24.502Z,975.6
2017-12-15T11:21:25.164Z,975.6
2017-12-15T11:22:25.824Z,975.6
2017-12-15T11:23:26.485Z,975.7
2017-12-15T11:24:27.144Z,975.7
2017-12-15T11:25:27.841Z,975.7
2017-12-15T11:26:28.526Z,975.7
2017-12-15T11:27:29.188Z,975.7
2017-12-15T11:28:29.849Z,975.7
2017-12-15T11:29:30.510Z,975.7
2017-12-15T11:30:31.171Z,975.7
2017-12-15T11:31:31.831Z,975.8
2017-12-15T11:32:32.527Z,975.7
2017-12-15T11:33:33.191Z,975.8
2017-12-15T11:34:33.850Z,975.8
2017-12-15T11:35:34.512Z,975.8
2017-12-15T11:36:35.173Z,975.8
2017-12-15T11:37:35.837Z,975.8
2017-12-15T11:38:36.499Z,975.9
2017-12-15T11:39:37.161Z,975.8
2017-12-15T11:40:37.821Z,975.8
2017-12-15T11:41:38.483Z,975.9
2017-12-15T11:42:39.144Z,975.8
2017-12-15T11:43:39.805Z,975.9
2017-12-15T11:44:40.466Z,975.9
2017-12-15T11:45:41.127Z,975.9
2017-12-15T11:46:41.788Z,975.9
2017-12-15T11:47:42.450Z,975.9
2017-12-15T11:48:43.113Z,976.0
2017-12-15T11:49:43.776Z,976.0
2017-12-15T11:50:44.439Z,976.0
2017-12-15T11:51:45.100Z,976.0
2017-12-15T11:52:45.762Z,976.0
2017-12-15T11:53:46.459Z,976.0
2017-12-15T11:54:47.121Z,976.0
2017-12-15T11:55:47.783Z,976.0
2017-12-15T11:56:48.444Z,976.0
2017-12-15T11:57:49.103Z,976.0
2017-12-15T11:58:49.764Z,976.0
2017-12-15T11:59:50.428Z,976.0
2017-12-15T12:00:51.090Z,976.0
2017-12-15T12:01:51.752Z,976.0
2017-12-15T12:02:52.414Z,976.0
2017-12-15T12:03:53.077Z,976.0
2017-12-15T12:04:53.739Z,976.0
2017-12-15T12:05:54.402Z,976.0
2017-12-15T12:06:55.063Z,976.0
2017-12-15T12:07:55.725Z,976.0
2017-12-15T12:08:56.390Z,976.0
2017-12-15T12:09:57.054Z,976.0
2017-12-15T12:10:57.717Z,975.9
2017-12-15T12:11:58.378Z,975.9
2017-12-15T12:12:59.039Z,975.9
2017-12-15T12:13:59.701Z,975.9
2017-12-15T12:15:00.363Z,976.0
2017-12-15T12:16:01.026Z,975.9
2017-12-15T12:17:01.725Z,975.9
2017-12-15T12:18:02.439Z,975.9
2017-12-15T12:19:03.139Z,975.9
2017-12-15T12:20:03.807Z,975.9
2017-12-15T12:21:04.466Z,975.9
2017-12-15T12:22:05.130Z,975.8
2017-12-15T12:23:05.792Z,975.8
2017-12-15T12:24:06.454Z,975.8
2017-12-15T12:25:07.120Z,975.8
2017-12-15T12:26:07.785Z,975.7
2017-12-15T12:27:08.449Z,975.7
2017-12-15T12:28:09.112Z,975.8
2017-12-15T12:29:09.775Z,975.8
2017-12-15T12:30:10.439Z,975.8
2017-12-15T12:31:11.103Z,975.8
2017-12-15T12:32:11.767Z,975.8
2017-12-15T12:33:12.430Z,975.8
2017-12-15T12:34:13.094Z,975.9
2017-12-15T12:35:13.753Z,975.9
2017-12-15T12:36:14.418Z,975.9
2017-12-15T12:37:15.083Z,975.9
2017-12-15T12:38:15.797Z,975.9
2017-12-15T12:39:16.459Z,975.8
2017-12-15T12:40:17.122Z,975.8
2017-12-15T12:41:17.789Z,975.8
2017-12-15T12:42:18.452Z,975.8
2017-12-15T12:43:19.116Z,975.7
2017-12-15T12:44:19.781Z,975.7
2017-12-15T12:45:20.444Z,975.8
2017-12-15T12:46:21.144Z,975.8
2017-12-15T12:47:21.810Z,975.8
2017-12-15T12:48:22.472Z,975.8
2017-12-15T12:49:23.139Z,975.9
2017-12-15T12:50:23.803Z,975.8
2017-12-15T12:51:24.467Z,975.9
2017-12-15T12:52:25.131Z,975.9
2017-12-15T12:53:25.798Z,975.9
2017-12-15T12:54:26.461Z,975.9
2017-12-15T12:55:27.124Z,976.0
2017-12-15T12:56:27.786Z,975.9
2017-12-15T12:57:28.449Z,976.0
2017-12-15T12:58:29.112Z,976.0
2017-12-15T12:59:29.778Z,975.9
2017-12-15T13:00:30.444Z,975.9